Terminal Aerodrome Forecast
Issued by NWS

Home | Current Version | Previous Version | Text Only | Print | Product List | Glossary On
Versions: 1 2 3 4 5 6 7 8 9 10 11 12 13 14 15 16 17 18 19 20 21 22 23 24 25 26 27 28 29 30 31 32 33 34 35 36 37 38 39 40 41 42 43 44 45 46
000
FTUS41 KBOX 222334
TAFACK
TAF
KACK 222334Z 2300/2324 23012KT P6SM SCT150 BKN250
     FM230700 20010KT 3SM BR SCT003 BKN060
     FM230900 20011KT 3SM BR BKN003
     FM231400 20012KT P6SM BKN003
     FM231800 20014KT 5SM BR BKN008
     FM232100 20016G24KT 2SM BR BKN003=

USA.gov is the U.S. government's official web portal to all federal, state and local government web resources and services.